createdAt,value
2018-03-23T00:02:09.231Z,97563.56
2018-03-23T00:04:37.158Z,97557.15
2018-03-23T00:07:04.785Z,97548.16
2018-03-23T00:09:32.412Z,97528.39
2018-03-23T00:12:00.033Z,97529.60
2018-03-23T00:14:27.673Z,97528.98
2018-03-23T00:16:55.764Z,97527.27
2018-03-23T00:19:23.611Z,97530.60
2018-03-23T00:21:51.258Z,97525.94
2018-03-23T00:24:18.833Z,97521.39
2018-03-23T00:26:46.455Z,97504.54
2018-03-23T00:29:14.202Z,97505.51
2018-03-23T00:31:41.842Z,97499.84
2018-03-23T00:34:09.473Z,97492.87
2018-03-23T00:36:37.072Z,97477.91
2018-03-23T00:39:05.561Z,97473.25
2018-03-23T00:41:33.505Z,97474.22
2018-03-23T00:44:01.087Z,97465.05
2018-03-23T00:46:28.672Z,97452.22
2018-03-23T00:48:56.600Z,97448.05
2018-03-23T00:51:24.184Z,97433.29
2018-03-23T00:53:51.777Z,97428.22
2018-03-23T00:56:19.508Z,97413.70
2018-03-23T00:58:47.075Z,97405.86
2018-03-23T01:01:14.682Z,97369.19
2018-03-23T01:03:42.325Z,97364.60
2018-03-23T01:06:09.907Z,97352.95
2018-03-23T01:08:37.554Z,97344.98
2018-03-23T01:11:06.156Z,97333.08
2018-03-23T01:13:33.737Z,97326.50
2018-03-23T01:16:01.404Z,97324.41
2018-03-23T01:18:29.045Z,97329.38
2018-03-23T01:20:56.705Z,97322.62
2018-03-23T01:23:24.293Z,97323.28
2018-03-23T01:25:51.947Z,97323.03
2018-03-23T01:28:19.533Z,97322.79
2018-03-23T01:30:47.126Z,97316.56
2018-03-23T01:33:15.032Z,97314.21
2018-03-23T01:35:42.669Z,97315.91
2018-03-23T01:38:10.273Z,97306.11
2018-03-23T01:40:37.887Z,97298.45
2018-03-23T01:43:05.544Z,97287.52
2018-03-23T01:45:34.050Z,97279.91
2018-03-23T01:48:01.712Z,97276.19
2018-03-23T01:50:29.366Z,97271.54
2018-03-23T01:52:56.944Z,97282.28
2018-03-23T01:55:24.592Z,97284.96
2018-03-23T01:57:52.170Z,97285.97
2018-03-23T02:00:19.758Z,97281.31
2018-03-23T02:02:47.771Z,97291.73
2018-03-23T02:05:15.368Z,97293.23
2018-03-23T02:07:42.963Z,97279.47
2018-03-23T02:10:10.601Z,97284.47
2018-03-23T02:12:38.238Z,97304.38
2018-03-23T02:15:05.906Z,97312.63
2018-03-23T02:17:33.984Z,97330.09
2018-03-23T02:20:01.646Z,97325.08
2018-03-23T02:22:29.231Z,97316.38
2018-03-23T02:24:56.927Z,97320.24
2018-03-23T02:27:24.504Z,97346.19
2018-03-23T02:29:52.088Z,97365.84
2018-03-23T02:32:19.961Z,97372.27
2018-03-23T02:34:47.539Z,97354.83
2018-03-23T02:37:15.167Z,97361.60
2018-03-23T02:39:42.784Z,97348.48
2018-03-23T02:42:10.394Z,97336.05
2018-03-23T02:44:37.973Z,97321.56
2018-03-23T02:47:05.856Z,97304.69
2018-03-23T02:49:33.441Z,97323.23
2018-03-23T02:52:01.042Z,97336.98
2018-03-23T02:54:28.682Z,97331.33
2018-03-23T02:56:56.245Z,97345.26
2018-03-23T02:59:23.802Z,97348.31
2018-03-23T03:01:51.412Z,97339.59
2018-03-23T03:04:19.489Z,97342.41
2018-03-23T03:06:47.117Z,97331.17
2018-03-23T03:09:15.002Z,97318.24
2018-03-23T03:11:43.232Z,97324.46
2018-03-23T03:14:10.872Z,97304.22
2018-03-23T03:16:38.525Z,97305.45
2018-03-23T03:19:06.178Z,97288.91
2018-03-23T03:21:33.746Z,97291.58
2018-03-23T03:24:01.592Z,97288.94
2018-03-23T03:26:29.214Z,97274.13
2018-03-23T03:28:56.787Z,97257.83
2018-03-23T03:31:24.442Z,97248.33
2018-03-23T03:33:52.000Z,97245.76
2018-03-23T03:36:19.550Z,97244.86
2018-03-23T03:38:47.199Z,97228.73
2018-03-23T03:41:14.750Z,97231.55
2018-03-23T03:43:42.307Z,97227.06
2018-03-23T03:46:10.185Z,97214.09
2018-03-23T03:48:38.405Z,97208.27
2018-03-23T03:51:05.972Z,97208.93
2018-03-23T03:53:33.604Z,97208.20
2018-03-23T03:56:01.234Z,97206.61
2018-03-23T03:58:28.806Z,97197.97
2018-03-23T04:00:56.434Z,97203.61
2018-03-23T04:03:23.985Z,97195.80
2018-03-23T04:05:51.551Z,97171.56
2018-03-23T04:08:19.404Z,97167.14
2018-03-23T04:10:46.978Z,97160.56
2018-03-23T04:13:14.532Z,97154.00
2018-03-23T04:15:42.181Z,97156.97
2018-03-23T04:18:09.738Z,97159.14
2018-03-23T04:20:37.452Z,97160.25
2018-03-23T04:23:05.063Z,97163.83
2018-03-23T04:25:32.628Z,97160.33
2018-03-23T04:28:00.206Z,97149.73
2018-03-23T04:30:28.131Z,97161.99
2018-03-23T04:32:55.861Z,97148.75
2018-03-23T04:35:23.436Z,97152.41
2018-03-23T04:37:51.077Z,97144.42
2018-03-23T04:40:18.640Z,97146.43
2018-03-23T04:42:46.275Z,97151.42
2018-03-23T04:45:14.152Z,97152.49
2018-03-23T04:47:41.737Z,97153.59
2018-03-23T04:50:09.349Z,97148.92
2018-03-23T04:52:36.961Z,97134.45
2018-03-23T04:55:04.535Z,97127.95
2018-03-23T04:57:32.114Z,97114.97
2018-03-23T04:59:59.726Z,97105.22
2018-03-23T05:02:27.297Z,97091.47
2018-03-23T05:04:54.867Z,97090.79
2018-03-23T05:07:23.907Z,97092.95
2018-03-23T05:09:51.488Z,97078.85
2018-03-23T05:12:19.048Z,97083.52
2018-03-23T05:14:46.684Z,97088.27
2018-03-23T05:17:14.236Z,97074.51
2018-03-23T05:19:41.873Z,97065.33
2018-03-23T05:22:09.864Z,97059.00
2018-03-23T05:24:37.482Z,97066.55
2018-03-23T05:27:05.094Z,97073.36
2018-03-23T05:29:32.853Z,97064.08
2018-03-23T05:32:00.478Z,97056.45
2018-03-23T05:34:28.046Z,97062.19
2018-03-23T05:36:55.677Z,97053.17
2018-03-23T05:39:23.250Z,97039.54
2018-03-23T05:41:50.825Z,97037.66
2018-03-23T05:44:18.429Z,97044.80
2018-03-23T05:46:45.991Z,97046.58
2018-03-23T05:49:13.569Z,97037.02
2018-03-23T05:51:41.221Z,97035.08
2018-03-23T05:54:08.778Z,97035.11
2018-03-23T05:56:36.344Z,97028.54
2018-03-23T05:59:04.003Z,97036.69
2018-03-23T06:01:31.609Z,97046.23
2018-03-23T06:04:00.387Z,97048.23
2018-03-23T06:06:28.260Z,97047.12
2018-03-23T06:08:55.845Z,97051.66
2018-03-23T06:11:23.434Z,97048.38
2018-03-23T06:13:51.127Z,97041.25
2018-03-23T06:16:20.971Z,97046.01
2018-03-23T06:18:48.590Z,97041.73
2018-03-23T06:21:16.468Z,97044.31
2018-03-23T06:23:44.296Z,97051.08
2018-03-23T06:26:11.961Z,97051.05
2018-03-23T06:28:39.650Z,97045.63
2018-03-23T06:31:07.230Z,97043.64
2018-03-23T06:33:34.810Z,97055.10
2018-03-23T06:36:02.462Z,97058.16
2018-03-23T06:38:30.024Z,97059.77
2018-03-23T06:40:57.638Z,97068.60
2018-03-23T06:43:25.263Z,97066.40
2018-03-23T06:45:52.874Z,97069.50
2018-03-23T06:48:20.786Z,97072.38
2018-03-23T06:50:48.521Z,97079.41
2018-03-23T06:53:16.093Z,97081.08
2018-03-23T06:55:43.666Z,97075.64
2018-03-23T06:58:11.528Z,97074.77
2018-03-23T07:00:39.183Z,97073.95
2018-03-23T07:03:06.777Z,97081.55
2018-03-23T07:05:34.474Z,97077.62
2018-03-23T07:08:02.050Z,97077.47
2018-03-23T07:10:29.634Z,97075.04
2018-03-23T07:12:57.257Z,97082.81
2018-03-23T07:15:24.921Z,97081.35
2018-03-23T07:17:52.584Z,97076.25
2018-03-23T07:20:20.239Z,97079.17
2018-03-23T07:22:47.854Z,97074.41
2018-03-23T07:25:15.603Z,97067.64
2018-03-23T07:27:43.221Z,97071.66
2018-03-23T07:30:10.796Z,97072.61
2018-03-23T07:32:38.466Z,97065.59
2018-03-23T07:35:06.091Z,97061.82
2018-03-23T07:37:34.558Z,97060.27
2018-03-23T07:40:02.154Z,97050.14
2018-03-23T07:42:29.830Z,97051.26
2018-03-23T07:44:57.409Z,97051.13
2018-03-23T07:47:24.990Z,97043.50
2018-03-23T07:49:52.619Z,97041.02
2018-03-23T07:52:20.716Z,97031.05
2018-03-23T07:54:48.318Z,97032.42
2018-03-23T07:57:16.248Z,97042.11
2018-03-23T07:59:43.875Z,97046.64
2018-03-23T08:02:11.474Z,97039.62
2018-03-23T08:04:39.122Z,97043.17
2018-03-23T08:07:06.804Z,97049.31
2018-03-23T08:09:34.440Z,97049.77
2018-03-23T08:12:02.088Z,97045.02
2018-03-23T08:16:56.535Z,97045.08
2018-03-23T08:19:24.184Z,97037.34
2018-03-23T08:21:52.617Z,97039.02
2018-03-23T08:24:20.386Z,97038.93
2018-03-23T08:26:48.143Z,97041.73
2018-03-23T08:29:15.726Z,97040.35
2018-03-23T08:31:43.300Z,97031.62
2018-03-23T08:34:11.208Z,97022.27
2018-03-23T08:36:38.794Z,97022.64
2018-03-23T08:39:06.419Z,97023.34
2018-03-23T08:41:34.069Z,97025.56
2018-03-23T08:44:01.627Z,97031.37
2018-03-23T08:46:29.218Z,97044.91
2018-03-23T08:48:57.154Z,97042.30
2018-03-23T08:51:24.745Z,97048.59
2018-03-23T08:53:52.337Z,97037.52
2018-03-23T08:56:19.969Z,97043.08
2018-03-23T08:58:47.543Z,97031.50
2018-03-23T09:01:15.140Z,97027.80
2018-03-23T09:03:42.816Z,97028.16
2018-03-23T09:06:10.466Z,97036.04
2018-03-23T09:08:38.603Z,97027.09
2018-03-23T09:11:06.449Z,97036.75
2018-03-23T09:13:34.066Z,97038.69
2018-03-23T09:16:01.663Z,97040.21
2018-03-23T09:18:29.280Z,97040.55
2018-03-23T09:20:56.937Z,97043.53
2018-03-23T09:23:24.520Z,97038.50
2018-03-23T09:25:52.195Z,97025.38
2018-03-23T09:28:19.949Z,97015.30
2018-03-23T09:30:47.520Z,97015.20
2018-03-23T09:33:15.138Z,97014.45
2018-03-23T09:35:42.749Z,97006.89
2018-03-23T09:38:10.370Z,97009.05
2018-03-23T09:40:37.977Z,96995.72
2018-03-23T09:43:05.558Z,96992.42
2018-03-23T09:45:33.117Z,96997.63
2018-03-23T09:48:00.831Z,96995.11
2018-03-23T09:50:28.402Z,96999.06
2018-03-23T09:52:56.009Z,96993.16
2018-03-23T09:55:23.951Z,96991.60
2018-03-23T09:57:51.517Z,96992.62
2018-03-23T10:00:19.116Z,96991.88
2018-03-23T10:02:46.762Z,96987.58
2018-03-23T10:05:14.337Z,96991.71
2018-03-23T10:07:41.944Z,96989.41
2018-03-23T10:10:09.569Z,96992.52
2018-03-23T10:12:37.145Z,96987.41
2018-03-23T10:15:04.754Z,96996.30
2018-03-23T10:17:32.643Z,96998.20
2018-03-23T10:20:00.216Z,96999.47
2018-03-23T10:22:27.866Z,97011.39
2018-03-23T10:24:55.484Z,97008.48
2018-03-23T10:27:23.100Z,97007.30
2018-03-23T10:29:50.858Z,97003.13
2018-03-23T10:32:19.128Z,97011.14
2018-03-23T10:34:46.680Z,97023.19
2018-03-23T10:37:14.266Z,97015.47
2018-03-23T10:39:41.990Z,97007.91
2018-03-23T10:42:09.569Z,97007.47
2018-03-23T10:44:37.150Z,97012.08
2018-03-23T10:47:04.794Z,97021.15
2018-03-23T10:49:32.393Z,97023.88
2018-03-23T10:51:59.966Z,97013.22
2018-03-23T10:54:27.599Z,97013.18
2018-03-23T10:56:55.230Z,97015.30
2018-03-23T10:59:22.816Z,97016.88
2018-03-23T11:01:55.982Z,97008.59
2018-03-23T11:04:23.575Z,97004.63
2018-03-23T11:06:51.152Z,97013.65
2018-03-23T11:09:18.833Z,97012.16
2018-03-23T11:11:46.447Z,97012.16
2018-03-23T11:14:14.016Z,97014.73
2018-03-23T11:16:41.633Z,97010.98
2018-03-23T11:19:09.197Z,97007.29
2018-03-23T11:21:36.840Z,97012.02
2018-03-23T11:24:04.498Z,97002.20
2018-03-23T11:26:32.080Z,97001.30
2018-03-23T11:28:59.645Z,97001.78
2018-03-23T11:31:27.385Z,97005.16
2018-03-23T11:33:54.965Z,97002.09
2018-03-23T11:36:22.563Z,96998.41
2018-03-23T11:38:50.205Z,96994.95
2018-03-23T11:41:18.691Z,96986.79
2018-03-23T11:43:46.263Z,96983.14
2018-03-23T11:46:13.918Z,96989.86
2018-03-23T11:48:42.365Z,96986.03
2018-03-23T11:51:09.956Z,96987.51
2018-03-23T11:53:37.954Z,96994.51
2018-03-23T11:56:05.549Z,96993.73
2018-03-23T11:58:33.124Z,96975.95
2018-03-23T12:01:00.808Z,96979.58
2018-03-23T12:03:28.421Z,96981.47
2018-03-23T12:05:56.011Z,96971.55
2018-03-23T12:08:23.697Z,96971.78
2018-03-23T12:10:51.298Z,96972.20
2018-03-23T12:13:18.882Z,96973.02
2018-03-23T12:15:46.566Z,96971.33
2018-03-23T12:18:14.145Z,96968.35
2018-03-23T12:20:41.732Z,96965.25
2018-03-23T12:23:09.394Z,96956.67
2018-03-23T12:25:36.979Z,96954.63
2018-03-23T12:28:04.558Z,96953.91
2018-03-23T12:30:32.490Z,96960.96
2018-03-23T12:33:00.604Z,96973.33
2018-03-23T12:35:28.248Z,96966.25
2018-03-23T12:37:55.915Z,96966.26
2018-03-23T12:40:23.513Z,96962.45
2018-03-23T12:42:51.111Z,96960.98
2018-03-23T12:45:18.822Z,96967.19
2018-03-23T12:47:46.406Z,96962.22
2018-03-23T12:50:13.987Z,96966.58
2018-03-23T12:52:41.612Z,96971.76
2018-03-23T12:55:09.193Z,96972.34
2018-03-23T12:57:36.799Z,96969.50
2018-03-23T13:00:04.785Z,96972.58
2018-03-23T13:02:32.366Z,96979.50
2018-03-23T13:04:59.946Z,96978.67
2018-03-23T13:07:27.572Z,96980.78
2018-03-23T13:09:55.176Z,96974.73
2018-03-23T13:12:22.770Z,96970.67
2018-03-23T13:14:50.481Z,96973.05
2018-03-23T13:17:18.077Z,96965.72
2018-03-23T13:19:45.652Z,96959.00
2018-03-23T13:22:13.317Z,96957.82
2018-03-23T13:24:41.005Z,96961.34
2018-03-23T13:27:08.634Z,96952.96
2018-03-23T13:29:36.301Z,96948.10
2018-03-23T13:32:03.917Z,96943.97
2018-03-23T13:34:31.665Z,96933.00
2018-03-23T13:36:59.312Z,96940.58
2018-03-23T13:39:26.984Z,96938.91
2018-03-23T13:41:55.406Z,96937.77
2018-03-23T13:44:23.101Z,96946.47
2018-03-23T13:46:50.698Z,96939.25
2018-03-23T13:49:18.334Z,96941.81
2018-03-23T13:51:46.003Z,96943.80
2018-03-23T13:54:14.150Z,96935.82
2018-03-23T13:56:41.766Z,96936.65
2018-03-23T13:59:15.704Z,96932.00
2018-03-23T14:01:43.376Z,96936.03
2018-03-23T14:04:11.046Z,96933.02
2018-03-23T14:06:38.803Z,96924.96
2018-03-23T14:09:06.511Z,96929.11
2018-03-23T14:11:34.117Z,96920.41
2018-03-23T14:14:01.811Z,96922.63
2018-03-23T14:16:29.436Z,96925.83
2018-03-23T14:18:57.179Z,96926.13
2018-03-23T14:21:24.877Z,96935.91
2018-03-23T14:23:52.509Z,96932.90
2018-03-23T14:26:20.235Z,96930.30
2018-03-23T14:28:48.037Z,96931.08
2018-03-23T14:31:15.689Z,96935.42
2018-03-23T14:33:43.431Z,96936.80
2018-03-23T14:36:11.515Z,96944.14
2018-03-23T14:38:39.143Z,96949.84
2018-03-23T14:41:06.826Z,96949.03
2018-03-23T14:43:34.471Z,96949.41
2018-03-23T14:46:02.089Z,96947.60
2018-03-23T14:48:29.720Z,96947.82
2018-03-23T14:50:57.442Z,96944.30
2018-03-23T14:53:25.195Z,96950.04
2018-03-23T14:55:52.793Z,96955.24
2018-03-23T14:58:20.452Z,96953.48
2018-03-23T15:00:48.058Z,96964.73
2018-03-23T15:03:15.722Z,96970.22
2018-03-23T15:05:43.850Z,96973.75
2018-03-23T15:08:11.486Z,96979.61
2018-03-23T15:10:39.155Z,96990.29
2018-03-23T15:13:06.831Z,96995.73
2018-03-23T15:15:34.530Z,96995.85
2018-03-23T15:18:02.192Z,97007.21
2018-03-23T15:20:29.862Z,97015.97
2018-03-23T15:22:57.466Z,97013.57
2018-03-23T15:25:25.108Z,97018.28
2018-03-23T15:27:53.038Z,97020.56
2018-03-23T15:32:47.615Z,97028.66
2018-03-23T15:35:15.319Z,97027.17
2018-03-23T15:37:43.098Z,97018.33
2018-03-23T15:40:11.295Z,97013.36
2018-03-23T15:42:38.926Z,97008.60
2018-03-23T15:45:06.586Z,97017.05
2018-03-23T15:47:34.256Z,97016.37
2018-03-23T15:50:01.972Z,97013.25
2018-03-23T15:52:29.739Z,97022.59
2018-03-23T15:54:57.677Z,97025.03
2018-03-23T15:57:25.549Z,97029.52
2018-03-23T15:59:53.283Z,97028.73
2018-03-23T16:02:21.185Z,97032.88
2018-03-23T16:04:49.155Z,97037.19
2018-03-23T16:07:16.958Z,97037.52
2018-03-23T16:09:44.802Z,97036.73
2018-03-23T16:12:12.701Z,97034.25
2018-03-23T16:14:40.470Z,97023.48
2018-03-23T16:17:08.293Z,97030.33
2018-03-23T16:19:35.991Z,97021.70
2018-03-23T16:22:03.881Z,97020.87
2018-03-23T16:24:32.218Z,97021.00
2018-03-23T16:27:00.128Z,97024.22
2018-03-23T16:29:28.015Z,97020.20
2018-03-23T16:31:55.948Z,97027.48
2018-03-23T16:34:24.181Z,97017.30
2018-03-23T16:36:52.924Z,97021.94
2018-03-23T16:39:20.895Z,97022.72
2018-03-23T16:41:48.839Z,97019.84
2018-03-23T16:44:16.809Z,97025.52
2018-03-23T16:46:44.717Z,97025.56
2018-03-23T16:49:12.657Z,97022.80
2018-03-23T16:51:40.529Z,97022.88
2018-03-23T16:54:08.450Z,97016.61
2018-03-23T16:56:36.376Z,97018.03
2018-03-23T16:59:04.271Z,97019.97
2018-03-23T17:01:32.160Z,97031.86
2018-03-23T17:04:00.399Z,97029.02
2018-03-23T17:06:29.198Z,97030.39
2018-03-23T17:08:57.040Z,97030.47
2018-03-23T17:11:25.214Z,97029.05
2018-03-23T17:13:53.233Z,97030.67
2018-03-23T17:16:25.072Z,97028.34
2018-03-23T17:18:52.985Z,97024.27
2018-03-23T17:21:20.876Z,97021.52
2018-03-23T17:23:48.766Z,97021.58
2018-03-23T17:26:16.712Z,97017.11
2018-03-23T17:28:44.621Z,97012.52
2018-03-23T17:31:12.585Z,97016.58
2018-03-23T17:33:40.571Z,97017.49
2018-03-23T17:36:08.507Z,97028.53
2018-03-23T17:38:36.451Z,97027.03
2018-03-23T17:41:05.005Z,97029.20
2018-03-23T17:43:32.907Z,97030.12
2018-03-23T17:46:00.844Z,97027.31
2018-03-23T17:48:28.877Z,97034.52
2018-03-23T17:50:56.763Z,97026.51
2018-03-23T17:53:24.663Z,97027.76
2018-03-23T17:55:53.403Z,97032.73
2018-03-23T17:58:21.915Z,97026.56
2018-03-23T18:00:49.815Z,97033.48
2018-03-23T18:03:17.859Z,97031.79
2018-03-23T18:05:45.758Z,97038.35
2018-03-23T18:08:13.718Z,97045.72
2018-03-23T18:10:42.556Z,97043.94
2018-03-23T18:13:10.447Z,97047.27
2018-03-23T18:15:38.338Z,97051.00
2018-03-23T18:18:06.287Z,97049.30
2018-03-23T18:20:34.184Z,97048.66
2018-03-23T18:23:02.713Z,97049.83
2018-03-23T18:25:30.635Z,97050.38
2018-03-23T18:27:58.494Z,97057.39
2018-03-23T18:30:26.378Z,97052.75
2018-03-23T18:32:54.313Z,97041.89
2018-03-23T18:35:22.247Z,97042.11
2018-03-23T18:37:50.130Z,97044.33
2018-03-23T18:40:18.152Z,97040.48
2018-03-23T18:42:46.448Z,97033.19
2018-03-23T18:45:14.376Z,97038.78
2018-03-23T18:47:42.622Z,97042.59
2018-03-23T18:50:10.587Z,97040.93
2018-03-23T18:52:38.519Z,97036.09
2018-03-23T18:55:06.553Z,97035.58
2018-03-23T18:57:34.520Z,97034.83
2018-03-23T19:00:02.566Z,97039.92
2018-03-23T19:02:30.523Z,97039.27
2018-03-23T19:04:58.399Z,97030.86
2018-03-23T19:07:26.331Z,97033.57
2018-03-23T19:09:54.265Z,97035.70
2018-03-23T19:12:22.202Z,97041.70
2018-03-23T19:14:50.191Z,97042.63
2018-03-23T19:17:18.452Z,97042.09
2018-03-23T19:19:46.459Z,97043.63
2018-03-23T19:22:15.268Z,97044.37
2018-03-23T19:24:43.212Z,97057.41
2018-03-23T19:27:11.202Z,97053.91
2018-03-23T19:29:39.139Z,97058.58
2018-03-23T19:32:07.157Z,97055.84
2018-03-23T19:34:35.162Z,97051.45
2018-03-23T19:37:03.051Z,97047.84
2018-03-23T19:39:31.337Z,97058.89
2018-03-23T19:41:59.565Z,97049.71
2018-03-23T19:44:27.684Z,97050.16
2018-03-23T19:46:56.683Z,97049.19
2018-03-23T19:49:24.656Z,97060.28
2018-03-23T19:51:52.574Z,97055.84
2018-03-23T19:54:20.535Z,97058.98
2018-03-23T19:56:48.407Z,97056.83
2018-03-23T19:59:16.321Z,97048.79
2018-03-23T20:01:44.754Z,97047.00
2018-03-23T20:04:12.667Z,97065.92
2018-03-23T20:06:40.596Z,97082.17
2018-03-23T20:09:08.929Z,97082.54
2018-03-23T20:11:37.057Z,97070.44
2018-03-23T20:14:11.232Z,97064.95
2018-03-23T20:16:39.127Z,97081.02
2018-03-23T20:19:07.020Z,97078.12
2018-03-23T20:21:34.980Z,97076.70
2018-03-23T20:24:08.365Z,97084.82
2018-03-23T20:26:36.459Z,97093.48
2018-03-23T20:29:04.361Z,97081.02
2018-03-23T20:31:37.854Z,97070.74
2018-03-23T20:34:05.768Z,97075.67
2018-03-23T20:36:33.722Z,97079.48
2018-03-23T20:39:01.868Z,97078.20
2018-03-23T20:41:29.761Z,97071.49
2018-03-23T20:43:57.634Z,97073.91
2018-03-23T20:46:25.731Z,97070.41
2018-03-23T20:48:53.614Z,97075.85
2018-03-23T20:51:21.498Z,97076.63
2018-03-23T20:53:49.442Z,97070.12
2018-03-23T20:56:17.323Z,97065.12
2018-03-23T20:58:45.275Z,97071.84
2018-03-23T21:01:13.201Z,97068.52
2018-03-23T21:03:41.078Z,97062.78
2018-03-23T21:06:08.949Z,97061.63
2018-03-23T21:08:36.883Z,97067.09
2018-03-23T21:11:04.793Z,97061.06
2018-03-23T21:13:32.764Z,97056.55
2018-03-23T21:16:00.899Z,97061.98
2018-03-23T21:18:28.745Z,97068.44
2018-03-23T21:20:56.623Z,97065.34
2018-03-23T21:23:24.717Z,97070.19
2018-03-23T21:25:52.591Z,97064.48
2018-03-23T21:28:21.562Z,97068.91
2018-03-23T21:30:50.195Z,97069.69
2018-03-23T21:33:18.051Z,97068.98
2018-03-23T21:35:45.880Z,97070.52
2018-03-23T21:38:13.888Z,97064.70
2018-03-23T21:40:41.780Z,97060.34
2018-03-23T21:43:09.760Z,97050.34
2018-03-23T21:45:37.574Z,97054.22
2018-03-23T21:48:05.481Z,97058.05
2018-03-23T21:50:33.167Z,97054.72
2018-03-23T21:53:00.869Z,97065.61
2018-03-23T21:55:28.521Z,97065.12
2018-03-23T21:57:57.087Z,97060.61
2018-03-23T22:00:24.755Z,97059.17
2018-03-23T22:02:52.356Z,97053.38
2018-03-23T22:05:19.920Z,97050.46
2018-03-23T22:07:47.537Z,97060.34
2018-03-23T22:10:15.173Z,97060.84
2018-03-23T22:12:42.736Z,97057.44
2018-03-23T22:15:10.407Z,97060.53
2018-03-23T22:17:37.985Z,97069.30
2018-03-23T22:20:05.652Z,97082.66
2018-03-23T22:22:33.976Z,97091.02
2018-03-23T22:25:01.588Z,97084.15
2018-03-23T22:27:29.422Z,97089.55
2018-03-23T22:29:57.244Z,97087.94
2018-03-23T22:32:24.904Z,97085.27
2018-03-23T22:34:52.567Z,97087.16
2018-03-23T22:37:20.217Z,97086.60
2018-03-23T22:39:47.899Z,97087.89
2018-03-23T22:42:15.555Z,97088.77
2018-03-23T22:44:43.255Z,97084.86
2018-03-23T22:47:10.821Z,97077.37
2018-03-23T22:49:38.570Z,97082.14
2018-03-23T22:52:06.214Z,97082.41
2018-03-23T22:54:33.807Z,97087.65
2018-03-23T22:57:01.385Z,97086.66
2018-03-23T22:59:29.323Z,97094.44
2018-03-23T23:01:56.905Z,97101.67
2018-03-23T23:04:24.467Z,97109.25
2018-03-23T23:06:52.097Z,97113.61
2018-03-23T23:09:21.732Z,97116.02
2018-03-23T23:11:49.389Z,97111.52
2018-03-23T23:14:17.311Z,97106.98
2018-03-23T23:16:44.944Z,97100.16
2018-03-23T23:19:12.583Z,97100.93
2018-03-23T23:21:40.281Z,97104.95
2018-03-23T23:24:07.915Z,97108.38
2018-03-23T23:26:35.484Z,97116.19
2018-03-23T23:29:03.113Z,97122.77
2018-03-23T23:31:30.681Z,97110.19
2018-03-23T23:33:58.332Z,97110.09
2018-03-23T23:36:27.207Z,97121.79
2018-03-23T23:38:54.768Z,97117.22
2018-03-23T23:41:22.328Z,97121.28
2018-03-23T23:43:49.937Z,97115.52
2018-03-23T23:46:17.527Z,97117.77
2018-03-23T23:48:45.145Z,97117.89
2018-03-23T23:51:13.424Z,97112.80
2018-03-23T23:53:41.055Z,97114.06
2018-03-23T23:56:08.633Z,97111.13
2018-03-23T23:58:36.265Z,97115.89
